Time;durP1;ratioP1;P1;durP2;ratioP2;P2;SDS_P1;SDS_P2;PMS_P1;PMS_P2;Temp;Humidity;BMP_temperature;BMP_pressure;BME280_temperature;BME280_humidity;BME280_pressure;Samples;Min_cycle;Max_cycle;Signal;HPM_P1;HPM_P2
2022/08/05 00:00:20;;;;;;;3.55;1.20;;;27.00;99.90;;;;;;5044443;28;20044;-76
2022/08/05 00:02:48;;;;;;;2.50;1.20;;;26.90;99.90;;;;;;5046365;28;20052;-76
2022/08/05 00:05:21;;;;;;;2.05;1.35;;;26.90;99.90;;;;;;5044669;28;20083;-76
2022/08/05 00:08:08;;;;;;;;;;;26.90;99.90;;;;;;5046252;28;20053;-76
2022/08/05 00:10:55;;;;;;;1.73;1.00;;;26.90;99.90;;;;;;5046428;28;19921;-75
2022/08/05 00:13:26;;;;;;;4.10;1.10;;;26.90;99.90;;;;;;5046200;28;20056;-76
2022/08/05 00:16:09;;;;;;;1.90;1.40;;;26.70;99.90;;;;;;5045022;28;20140;-76
2022/08/05 00:18:40;;;;;;;5.78;1.52;;;26.60;99.90;;;;;;5046230;28;20049;-75
2022/08/05 00:21:08;;;;;;;2.80;1.40;;;26.60;99.90;;;;;;5047248;28;20188;-76
2022/08/05 00:23:36;;;;;;;2.85;1.20;;;26.70;99.90;;;;;;5045567;28;20087;-76
2022/08/05 00:26:19;;;;;;;2.47;1.40;;;26.60;99.90;;;;;;5045562;28;20049;-76
2022/08/05 00:28:45;;;;;;;2.35;1.38;;;26.60;99.90;;;;;;5042915;28;20479;-76
2022/08/05 00:31:14;;;;;;;3.80;1.27;;;26.60;99.90;;;;;;5047346;28;20049;-76
2022/08/05 00:33:41;;;;;;;1.50;1.25;;;26.60;99.90;;;;;;5047313;28;20429;-76
2022/08/05 00:36:28;;;;;;;2.38;1.30;;;26.60;99.90;;;;;;5047888;28;20045;-76
2022/08/05 00:39:15;;;;;;;4.53;1.27;;;26.50;99.90;;;;;;5047872;28;20049;-76
2022/08/05 00:41:45;;;;;;;1.27;1.17;;;26.50;99.90;;;;;;5048285;28;20461;-75
2022/08/05 00:44:22;;;;;;;4.53;1.53;;;26.50;99.90;;;;;;5044398;28;20137;-75
2022/08/05 00:46:57;;;;;;;1.77;1.33;;;26.40;99.90;;;;;;5047581;28;20418;-76
2022/08/05 00:49:29;;;;;;;2.17;1.30;;;26.40;99.90;;;;;;5048696;28;20049;-75
2022/08/05 00:51:58;;;;;;;1.92;1.10;;;26.30;99.90;;;;;;5040308;28;20053;-75
2022/08/05 00:54:25;;;;;;;1.83;1.27;;;26.30;99.90;;;;;;5049293;28;20156;-76
2022/08/05 00:56:55;;;;;;;2.35;1.10;;;26.30;99.90;;;;;;5048997;28;20130;-76
2022/08/05 00:59:22;;;;;;;1.65;1.33;;;26.30;99.90;;;;;;5042893;28;20040;-76
2022/08/05 01:01:49;;;;;;;1.92;1.02;;;26.30;99.90;;;;;;5049504;28;20503;-76
2022/08/05 01:04:17;;;;;;;5.75;1.40;;;26.20;99.90;;;;;;5049155;28;20049;-76
2022/08/05 01:06:52;;;;;;;4.03;1.50;;;26.20;99.90;;;;;;5049779;28;20103;-76
2022/08/05 01:09:20;;;;;;;4.72;1.38;;;26.20;99.90;;;;;;5049382;28;20128;-75
2022/08/05 01:11:50;;;;;;;1.75;1.00;;;26.20;99.90;;;;;;5050007;28;20128;-76
2022/08/05 01:14:39;;;;;;;2.22;1.40;;;26.20;99.90;;;;;;5050380;28;20083;-76
2022/08/05 01:17:10;;;;;;;3.17;1.30;;;26.20;99.90;;;;;;5049270;28;20084;-76
2022/08/05 01:19:40;;;;;;;7.85;1.38;;;26.20;99.90;;;;;;5050297;28;20491;-76
2022/08/05 01:22:51;;;;;;;1.73;1.20;;;26.10;99.90;;;;;;5050979;28;20049;-76
2022/08/05 01:25:44;;;;;;;3.38;1.65;;;26.10;99.90;;;;;;5051009;28;20052;-76
2022/08/05 01:28:25;;;;;;;2.58;1.40;;;26.10;99.90;;;;;;5046538;28;20045;-76
2022/08/05 01:31:00;;;;;;;2.08;1.30;;;26.10;99.90;;;;;;5051006;28;20084;-76
2022/08/05 01:33:34;;;;;;;2.40;1.30;;;26.00;99.90;;;;;;5051865;28;20052;-76
2022/08/05 01:36:08;;;;;;;3.40;1.50;;;26.00;99.90;;;;;;5051834;28;20059;-76
2022/08/05 01:38:42;;;;;;;;;;;26.00;99.90;;;;;;5052181;28;20098;-75
2022/08/05 01:41:13;;;;;;;1.83;1.20;;;26.00;99.90;;;;;;5038961;28;19926;-76
2022/08/05 01:43:41;;;;;;;5.18;1.25;;;26.00;99.90;;;;;;5012702;28;20125;-76
2022/08/05 01:46:08;;;;;;;1.70;1.30;;;26.00;99.90;;;;;;5012534;28;20594;-75
2022/08/05 01:48:45;;;;;;;5.18;1.30;;;26.00;99.90;;;;;;5012536;28;20045;-76
2022/08/05 01:51:16;;;;;;;1.98;1.45;;;26.00;99.90;;;;;;5013142;28;20210;-76
2022/08/05 01:53:46;;;;;;;2.25;1.27;;;26.00;99.90;;;;;;5013459;28;20089;-76
2022/08/05 01:56:32;;;;;;;1.92;1.30;;;26.00;99.90;;;;;;5025894;28;20076;-76
2022/08/05 01:59:21;;;;;;;5.13;1.70;;;26.00;99.90;;;;;;5029548;28;20053;-76
2022/08/05 02:01:50;;;;;;;3.03;1.20;;;26.00;99.90;;;;;;5033468;28;20089;-76
2022/08/05 02:04:22;;;;;;;5.88;1.42;;;26.00;99.90;;;;;;5032679;28;20081;-76
2022/08/05 02:06:49;;;;;;;3.33;1.33;;;26.00;99.90;;;;;;5033876;28;20055;-75
2022/08/05 02:09:16;;;;;;;4.28;1.58;;;26.00;99.90;;;;;;5033874;28;20467;-76
2022/08/05 02:12:26;;;;;;;5.05;1.33;;;26.10;99.90;;;;;;5032764;28;20479;-76
2022/08/05 02:15:21;;;;;;;3.35;1.40;;;26.10;99.90;;;;;;5028620;28;20079;-76
2022/08/05 02:18:00;;;;;;;3.97;1.38;;;26.20;99.90;;;;;;5032806;28;20131;-76
2022/08/05 02:20:59;;;;;;;4.15;1.60;;;26.30;99.90;;;;;;5031957;28;20502;-75
2022/08/05 02:23:31;;;;;;;2.53;1.55;;;26.30;99.90;;;;;;5035355;28;20137;-75
2022/08/05 02:26:03;;;;;;;2.13;1.30;;;26.30;99.90;;;;;;5032684;28;20049;-76
2022/08/05 02:28:35;;;;;;;2.67;1.30;;;26.30;99.90;;;;;;5035575;28;20137;-75
2022/08/05 02:31:13;;;;;;;4.85;1.50;;;26.40;99.90;;;;;;5034845;28;20140;-76
2022/08/05 02:33:48;;;;;;;4.68;1.48;;;26.40;99.90;;;;;;5032893;28;20060;-76
2022/08/05 02:36:25;;;;;;;9.07;1.50;;;26.40;99.90;;;;;;5035602;28;20072;-75
2022/08/05 02:38:58;;;;;;;1.60;1.13;;;26.40;99.90;;;;;;5035917;28;20049;-76
2022/08/05 02:41:27;;;;;;;3.95;1.13;;;26.40;99.90;;;;;;5035750;28;20079;-76
2022/08/05 02:44:16;;;;;;;4.82;1.55;;;26.40;99.90;;;;;;5035916;28;20054;-75
2022/08/05 02:46:46;;;;;;;4.78;1.30;;;26.40;99.90;;;;;;5036844;28;20073;-76
2022/08/05 02:49:29;;;;;;;2.28;1.40;;;26.30;99.90;;;;;;5035430;28;20493;-76
2022/08/05 02:52:06;;;;;;;2.00;1.38;;;26.40;99.90;;;;;;5028144;28;20048;-76
2022/08/05 02:54:36;;;;;;;4.63;1.20;;;26.30;99.90;;;;;;5031754;28;20091;-76
2022/08/05 02:57:12;;;;;;;4.20;1.65;;;26.30;99.90;;;;;;5035103;28;20045;-76
2022/08/05 02:59:59;;;;;;;7.03;1.67;;;26.30;99.90;;;;;;5037394;28;20419;-76
2022/08/05 03:02:35;;;;;;;5.32;1.67;;;26.20;99.90;;;;;;5038020;28;20049;-76
2022/08/05 03:05:03;;;;;;;6.20;1.40;;;26.20;99.90;;;;;;5038042;28;20483;-76
2022/08/05 03:07:31;;;;;;;3.58;1.52;;;26.20;99.90;;;;;;5037951;28;20049;-76
2022/08/05 03:10:17;;;;;;;2.20;1.50;;;26.20;99.90;;;;;;5041525;28;20076;-76
2022/08/05 03:12:51;;;;;;;4.35;1.50;;;26.20;99.90;;;;;;5042846;28;20054;-76
2022/08/05 03:15:19;;;;;;;2.58;1.13;;;26.10;99.90;;;;;;5042250;28;20085;-76
2022/08/05 03:17:46;;;;;;;5.03;1.33;;;26.00;99.90;;;;;;5042395;28;20045;-76
2022/08/05 03:20:12;;;;;;;4.85;1.52;;;26.00;99.90;;;;;;5040578;28;20042;-76
2022/08/05 03:22:40;;;;;;;4.88;1.80;;;26.10;99.90;;;;;;5040760;28;20041;-76
2022/08/05 03:25:17;;;;;;;1.58;1.25;;;26.00;99.90;;;;;;5041149;28;20581;-76
2022/08/05 03:28:06;;;;;;;4.82;1.27;;;26.00;99.90;;;;;;5042329;28;20435;-76
2022/08/05 03:30:34;;;;;;;1.88;1.20;;;26.00;99.90;;;;;;5042653;28;20057;-76
2022/08/05 03:33:02;;;;;;;3.58;1.60;;;25.90;99.90;;;;;;5041388;28;20081;-76
2022/08/05 03:35:31;;;;;;;2.53;1.40;;;25.90;99.90;;;;;;5034403;28;20270;-76
2022/08/05 03:38:00;;;;;;;3.17;1.17;;;25.80;99.90;;;;;;5026737;28;20078;-76
2022/08/05 03:40:27;;;;;;;2.45;1.33;;;25.90;99.90;;;;;;5023947;28;20088;-76
2022/08/05 03:42:59;;;;;;;3.92;1.65;;;25.90;99.90;;;;;;5024109;28;20049;-75
2022/08/05 03:45:46;;;;;;;4.45;1.38;;;25.80;99.90;;;;;;5044007;28;20047;-76
2022/08/05 03:48:28;;;;;;;5.15;1.75;;;25.80;99.90;;;;;;5042792;28;20098;-75
2022/08/05 03:51:16;;;;;;;4.95;2.47;;;25.80;99.90;;;;;;5042867;28;20419;-76
2022/08/05 03:54:08;;;;;;;3.28;1.50;;;25.70;99.90;;;;;;5045738;28;20053;-76
2022/08/05 03:56:55;;;;;;;2.15;1.45;;;25.70;99.90;;;;;;5043624;28;20049;-75
2022/08/05 03:59:34;;;;;;;;;;;25.60;99.90;;;;;;5045428;28;20045;-76
2022/08/05 04:02:25;;;;;;;6.93;1.77;;;25.60;99.90;;;;;;5045926;28;19921;-76
2022/08/05 04:05:11;;;;;;;7.40;1.42;;;25.50;99.90;;;;;;5044558;28;20077;-76
2022/08/05 04:07:40;;;;;;;3.20;1.80;;;25.50;99.90;;;;;;5045659;28;20059;-76
2022/08/05 04:10:26;;;;;;;4.95;1.90;;;25.50;99.90;;;;;;5044976;28;20056;-75
2022/08/05 04:12:55;;;;;;;4.38;1.83;;;25.50;99.90;;;;;;5045800;28;20049;-76
2022/08/05 04:15:27;;;;;;;6.70;1.70;;;25.40;99.90;;;;;;5045233;28;20110;-76
2022/08/05 04:18:03;;;;;;;5.22;1.75;;;25.30;99.90;;;;;;5045495;28;20041;-75
2022/08/05 04:20:33;;;;;;;2.65;1.60;;;25.30;99.90;;;;;;5041810;28;20099;-76
2022/08/05 04:23:00;;;;;;;7.65;1.63;;;25.30;99.90;;;;;;5046189;28;20396;-76
2022/08/05 04:25:27;;;;;;;2.88;1.50;;;25.30;99.90;;;;;;5045750;28;20099;-76
2022/08/05 04:28:13;;;;;;;8.38;1.45;;;25.30;99.90;;;;;;5046031;28;20059;-75
2022/08/05 04:30:43;;;;;;;9.70;3.20;;;25.30;99.90;;;;;;5047605;28;20061;-75
2022/08/05 04:33:11;;;;;;;6.55;1.80;;;25.30;99.90;;;;;;5045836;28;20053;-76
2022/08/05 04:35:38;;;;;;;8.18;2.30;;;25.40;99.90;;;;;;5042677;28;20132;-76
2022/08/05 04:38:24;;;;;;;4.43;1.80;;;25.40;99.90;;;;;;5047785;28;20045;-75
2022/08/05 04:41:06;;;;;;;4.63;1.50;;;25.40;99.90;;;;;;5048125;28;20090;-76
2022/08/05 04:43:36;;;;;;;5.00;1.50;;;25.40;99.90;;;;;;5048747;28;20100;-76
2022/08/05 04:46:06;;;;;;;9.85;2.25;;;25.40;99.90;;;;;;5047808;28;20041;-76
2022/08/05 04:48:33;;;;;;;4.90;2.15;;;25.40;99.90;;;;;;5047348;28;20136;-75
2022/08/05 04:51:00;;;;;;;3.63;1.77;;;25.30;99.90;;;;;;5048536;28;20049;-76
2022/08/05 04:53:29;;;;;;;4.15;1.48;;;25.20;99.90;;;;;;5043436;28;20507;-76
2022/08/05 04:56:01;;;;;;;3.50;2.22;;;25.20;99.90;;;;;;5048157;28;20057;-75
2022/08/05 04:58:48;;;;;;;2.83;1.83;;;25.00;99.90;;;;;;5047329;28;20047;-76
2022/08/05 05:01:15;;;;;;;3.50;1.80;;;25.00;99.90;;;;;;5042599;28;20068;-76
2022/08/05 05:04:02;;;;;;;3.58;1.70;;;24.90;99.90;;;;;;5049836;28;20053;-76
2022/08/05 05:06:30;;;;;;;6.07;1.95;;;24.90;99.90;;;;;;5050065;28;20045;-76
2022/08/05 05:09:11;;;;;;;5.35;1.80;;;24.90;99.90;;;;;;5045231;28;20136;-75
2022/08/05 05:11:43;;;;;;;4.85;1.75;;;25.00;99.90;;;;;;5049517;28;20128;-75
2022/08/05 05:14:22;;;;;;;7.38;2.35;;;25.00;99.90;;;;;;5050089;28;20457;-76
2022/08/05 05:16:57;;;;;;;8.32;2.10;;;25.00;99.90;;;;;;5050497;28;20472;-76
2022/08/05 05:19:24;;;;;;;3.92;1.77;;;25.10;99.90;;;;;;5049823;28;20447;-76
2022/08/05 05:22:01;;;;;;;3.45;2.20;;;25.10;99.90;;;;;;5049826;28;20460;-75
2022/08/05 05:24:47;;;;;;;4.22;2.00;;;25.10;99.90;;;;;;5051093;28;20087;-76
2022/08/05 05:27:26;;;;;;;4.88;1.88;;;25.20;99.90;;;;;;5051304;28;20083;-76
2022/08/05 05:30:14;;;;;;;5.85;1.92;;;25.20;99.90;;;;;;5050905;28;20071;-76
2022/08/05 05:32:58;;;;;;;6.90;1.98;;;25.30;99.90;;;;;;5050552;28;20048;-76
2022/08/05 05:35:31;;;;;;;5.80;1.88;;;25.30;99.90;;;;;;5042541;28;20073;-76
2022/08/05 05:38:05;;;;;;;6.18;1.83;;;25.40;99.90;;;;;;5045130;28;20379;-75
2022/08/05 05:40:35;;;;;;;11.77;2.22;;;25.40;99.90;;;;;;5051773;28;20106;-75
2022/08/05 05:43:02;;;;;;;12.68;2.30;;;25.40;99.90;;;;;;5031941;28;20053;-76
2022/08/05 05:45:29;;;;;;;13.38;2.25;;;25.40;99.90;;;;;;5012671;28;20396;-76
2022/08/05 05:47:59;;;;;;;9.30;2.40;;;25.30;99.90;;;;;;5012644;28;20042;-77
2022/08/05 05:50:34;;;;;;;6.03;2.03;;;25.60;99.90;;;;;;5027866;28;20045;-76
2022/08/05 05:53:11;;;;;;;4.57;1.90;;;25.30;99.90;;;;;;5032442;28;20087;-75
2022/08/05 05:55:51;;;;;;;4.50;2.17;;;25.30;99.90;;;;;;5032876;28;20041;-76
2022/08/05 06:01:05;;;;;;;8.07;1.98;;;25.50;99.90;;;;;;4992134;28;20100;-75
2022/08/05 06:03:40;;;;;;;4.35;2.00;;;25.60;99.90;;;;;;4992669;28;20133;-75
2022/08/05 06:06:27;;;;;;;5.40;2.42;;;25.60;99.90;;;;;;4988678;28;20500;-75
2022/08/05 06:09:01;;;;;;;5.57;2.40;;;25.70;99.90;;;;;;4991952;28;20133;-75
2022/08/05 06:11:33;;;;;;;10.70;2.30;;;25.70;99.90;;;;;;4988090;28;20046;-75
2022/08/05 06:14:00;;;;;;;5.93;2.10;;;25.60;99.90;;;;;;4992412;28;20281;-75
2022/08/05 06:16:27;;;;;;;5.50;1.88;;;25.60;99.90;;;;;;4992237;28;20047;-75
2022/08/05 06:19:03;;;;;;;7.05;1.67;;;25.50;99.90;;;;;;4991989;28;20050;-75
2022/08/05 06:21:33;;;;;;;4.55;1.60;;;25.40;99.90;;;;;;4992195;28;20412;-75
2022/08/05 06:24:05;;;;;;;7.20;2.10;;;25.40;99.90;;;;;;4990956;28;20121;-75
2022/08/05 06:26:37;;;;;;;3.92;1.77;;;25.40;99.90;;;;;;4992202;28;20065;-75
2022/08/05 06:29:04;;;;;;;6.10;2.05;;;25.40;99.90;;;;;;5006910;28;20449;-75
2022/08/05 06:31:50;;;;;;;4.40;1.90;;;25.50;99.90;;;;;;4990554;28;20515;-75
2022/08/05 06:34:17;;;;;;;4.30;1.60;;;25.60;99.90;;;;;;4988312;28;20054;-75
2022/08/05 06:36:45;;;;;;;8.02;1.83;;;25.60;99.90;;;;;;4986685;28;20084;-75
2022/08/05 06:39:25;;;;;;;3.95;2.00;;;25.70;99.90;;;;;;4987919;28;20056;-75
2022/08/05 06:42:00;;;;;;;7.82;1.70;;;25.70;99.90;;;;;;4984811;28;20501;-75
2022/08/05 06:44:29;;;;;;;5.90;2.00;;;25.70;99.90;;;;;;4990115;28;20057;-75
2022/08/05 06:46:56;;;;;;;5.47;2.30;;;25.80;99.90;;;;;;5006675;28;20479;-75
2022/08/05 06:49:23;;;;;;;4.03;1.70;;;25.80;99.90;;;;;;4991568;28;20137;-75
2022/08/05 06:52:10;;;;;;;6.15;1.80;;;25.90;99.90;;;;;;4991882;28;20058;-75
2022/08/05 06:54:57;;;;;;;3.53;1.80;;;25.90;99.90;;;;;;4991588;28;20057;-75
2022/08/05 06:57:23;;;;;;;4.90;2.05;;;25.90;99.90;;;;;;4985964;28;20082;-75
2022/08/05 07:00:10;;;;;;;5.97;1.50;;;25.80;99.90;;;;;;4989404;28;20069;-75
2022/08/05 07:02:42;;;;;;;3.97;1.92;;;25.80;99.90;;;;;;4990945;28;20043;-75
2022/08/05 07:05:10;;;;;;;4.35;1.73;;;25.70;99.90;;;;;;4988801;28;20077;-75
2022/08/05 07:07:47;;;;;;;2.10;1.58;;;25.70;99.90;;;;;;4989582;28;20061;-75
2022/08/05 07:10:14;;;;;;;7.13;2.30;;;25.60;99.90;;;;;;4989480;28;20568;-75
2022/08/05 07:18:30;;;;;;;4.55;1.75;;;25.40;99.90;;;;;;4989523;28;20046;-75
2022/08/05 07:20:57;;;;;;;6.22;1.50;;;25.40;99.90;;;;;;4990433;28;20511;-75
2022/08/05 07:23:31;;;;;;;6.80;1.67;;;25.40;99.90;;;;;;4989700;28;20508;-75
2022/08/05 07:25:58;;;;;;;4.03;1.77;;;25.40;99.90;;;;;;4991184;28;20050;-75
2022/08/05 07:28:25;;;;;;;2.67;1.80;;;25.50;99.90;;;;;;4989952;28;20086;-75
2022/08/05 07:30:51;;;;;;;4.35;1.48;;;25.60;99.90;;;;;;4988686;28;20133;-75
2022/08/05 07:33:21;;;;;;;5.47;1.70;;;25.70;99.90;;;;;;4991385;28;20058;-75
2022/08/05 07:36:04;;;;;;;4.85;1.75;;;25.70;99.90;;;;;;4988356;28;20060;-76
2022/08/05 07:38:47;;;;;;;5.22;1.67;;;25.80;99.90;;;;;;4990679;28;20054;-75
2022/08/05 07:41:17;;;;;;;4.60;1.70;;;25.90;99.90;;;;;;4991425;28;20057;-75
2022/08/05 07:44:07;;;;;;;2.73;1.70;;;25.90;99.90;;;;;;4991272;28;20412;-75
2022/08/05 07:46:46;;;;;;;3.83;1.85;;;26.00;99.90;;;;;;4987331;28;20282;-75
2022/08/05 07:49:14;;;;;;;2.42;1.52;;;26.00;99.90;;;;;;4989211;28;20120;-75
2022/08/05 07:51:43;;;;;;;3.28;1.48;;;26.00;99.90;;;;;;4991361;28;20105;-75
2022/08/05 07:54:22;;;;;;;5.10;1.65;;;26.10;99.90;;;;;;4986868;28;20480;-75
2022/08/05 07:56:56;;;;;;;3.33;1.50;;;26.10;99.90;;;;;;4991168;28;20050;-75
2022/08/05 07:59:42;;;;;;;3.97;1.80;;;26.20;99.90;;;;;;4986036;28;20054;-75
2022/08/05 08:02:12;;;;;;;;;;;26.20;99.90;;;;;;4995263;28;20074;-75
2022/08/05 08:04:43;;;;;;;;;;;26.20;99.90;;;;;;4990322;28;19921;-76
2022/08/05 08:07:11;;;;;;;3.10;1.98;;;26.30;99.90;;;;;;4985087;28;19922;-75
2022/08/05 08:09:37;;;;;;;3.05;1.63;;;26.30;99.90;;;;;;4989744;28;20141;-76
2022/08/05 08:12:05;;;;;;;4.38;2.20;;;26.40;99.90;;;;;;4987005;28;20092;-75
2022/08/05 08:14:52;;;;;;;4.78;1.58;;;26.40;99.90;;;;;;4993587;28;20076;-76
2022/08/05 08:17:18;;;;;;;5.88;1.73;;;26.40;99.90;;;;;;4994040;28;20125;-76
2022/08/05 08:19:47;;;;;;;3.00;1.90;;;26.40;99.90;;;;;;4997972;28;20725;-76
2022/08/05 08:22:34;;;;;;;1.77;1.67;;;26.50;99.90;;;;;;4978767;28;20043;-75
2022/08/05 08:25:01;;;;;;;3.92;2.30;;;26.60;99.90;;;;;;4987503;28;20551;-75
2022/08/05 08:27:42;;;;;;;1.63;1.45;;;26.80;99.90;;;;;;5001946;28;20042;-75
2022/08/05 08:30:14;;;;;;;4.38;1.80;;;26.90;99.90;;;;;;4987696;28;20050;-75
2022/08/05 08:32:59;;;;;;;2.40;1.80;;;27.00;99.90;;;;;;5004474;28;20054;-75
2022/08/05 08:35:30;;;;;;;2.47;1.52;;;27.10;99.90;;;;;;4988115;28;20054;-75
2022/08/05 08:38:06;;;;;;;4.13;1.45;;;27.20;99.90;;;;;;4989985;28;20582;-75
2022/08/05 08:40:34;;;;;;;2.50;1.48;;;27.30;99.90;;;;;;4988656;28;20072;-76
2022/08/05 08:43:03;;;;;;;2.58;1.55;;;27.40;99.90;;;;;;4988946;28;20046;-75
2022/08/05 08:45:52;;;;;;;2.63;1.70;;;27.50;99.90;;;;;;4994208;28;20046;-76
2022/08/05 08:48:20;;;;;;;3.65;1.40;;;27.60;99.90;;;;;;5009366;28;20100;-76
2022/08/05 08:51:06;;;;;;;2.28;1.60;;;27.70;99.90;;;;;;4993024;28;20421;-76
2022/08/05 08:53:54;;;;;;;5.68;1.50;;;27.80;99.90;;;;;;5005538;28;20076;-76
2022/08/05 08:56:22;;;;;;;5.35;1.40;;;27.90;99.90;;;;;;4990827;28;20090;-76
2022/08/05 08:58:52;;;;;;;2.95;1.50;;;27.90;99.90;;;;;;4994067;28;20046;-75
2022/08/05 09:01:19;;;;;;;3.55;1.77;;;27.90;99.90;;;;;;5008938;28;20130;-75
2022/08/05 09:03:52;;;;;;;8.40;1.42;;;28.00;99.90;;;;;;4993793;28;20578;-76
2022/08/05 09:06:24;;;;;;;3.70;1.67;;;28.00;99.90;;;;;;4989106;28;20125;-76
2022/08/05 09:08:57;;;;;;;3.90;1.48;;;28.10;99.90;;;;;;4993712;28;20054;-76
2022/08/05 09:11:24;;;;;;;4.38;1.38;;;28.10;99.90;;;;;;4986686;28;20141;-76
2022/08/05 09:14:11;;;;;;;5.93;1.80;;;28.20;99.90;;;;;;4988818;28;20428;-75
2022/08/05 09:17:03;;;;;;;2.85;1.50;;;28.30;99.90;;;;;;4993432;28;20050;-75
2022/08/05 09:19:34;;;;;;;8.00;1.45;;;28.50;99.90;;;;;;5007547;28;20047;-75
2022/08/05 09:22:21;;;;;;;4.25;1.30;;;28.50;99.90;;;;;;4993447;28;20053;-74
2022/08/05 09:25:02;;;;;;;2.95;1.30;;;28.60;99.90;;;;;;5007220;28;20054;-75
2022/08/05 09:27:50;;;;;;;2.75;1.60;;;28.70;99.90;;;;;;4993536;28;20068;-74
2022/08/05 09:30:33;;;;;;;2.97;1.23;;;28.80;99.90;;;;;;5001205;28;20524;-74
2022/08/05 09:33:01;;;;;;;4.43;1.40;;;28.80;99.90;;;;;;5008409;28;20185;-74
2022/08/05 09:35:27;;;;;;;3.78;1.05;;;28.90;99.90;;;;;;4989294;28;20078;-76
2022/08/05 09:37:57;;;;;;;3.70;1.30;;;29.00;99.90;;;;;;4993296;28;20057;-74
2022/08/05 09:40:44;;;;;;;2.53;1.40;;;29.00;99.90;;;;;;4994213;28;20081;-76
2022/08/05 09:43:33;;;;;;;3.92;1.50;;;28.90;99.90;;;;;;4978825;28;20070;-75
2022/08/05 09:46:25;;;;;;;4.93;1.42;;;29.00;99.90;;;;;;4982079;28;20467;-76
2022/08/05 09:48:55;;;;;;;2.53;1.38;;;29.10;99.90;;;;;;4987387;28;20138;-76
2022/08/05 09:51:42;;;;;;;4.55;1.60;;;29.10;99.90;;;;;;4990208;28;20050;-75
2022/08/05 09:54:10;;;;;;;1.58;1.30;;;29.20;99.90;;;;;;4991220;28;20082;-76
2022/08/05 09:56:37;;;;;;;2.42;1.40;;;29.10;99.90;;;;;;4989036;28;20057;-76
2022/08/05 09:59:08;;;;;;;1.92;1.15;;;29.30;99.90;;;;;;4980839;28;20469;-76
2022/08/05 10:01:45;;;;;;;1.70;1.30;;;29.30;99.90;;;;;;4971522;28;20050;-76
2022/08/05 10:04:13;;;;;;;3.17;1.30;;;29.30;99.90;;;;;;4981443;28;20057;-76
2022/08/05 10:06:54;;;;;;;2.03;1.73;;;29.30;99.90;;;;;;4988983;28;20526;-75
2022/08/05 10:09:25;;;;;;;2.40;1.20;;;29.40;99.90;;;;;;4979226;28;20074;-76
2022/08/05 10:12:06;;;;;;;;;;;29.40;99.90;;;;;;4982142;28;20042;-73
2022/08/05 10:15:11;;;;;;;2.72;1.70;;;29.40;99.90;;;;;;4979432;28;20528;-77
2022/08/05 10:17:42;;;;;;;3.15;1.50;;;29.40;99.90;;;;;;4985306;28;20463;-77
2022/08/05 10:20:22;;;;;;;2.53;1.40;;;29.50;99.90;;;;;;4985252;28;20133;-76
2022/08/05 10:22:51;;;;;;;2.00;1.52;;;29.60;99.90;;;;;;4985841;28;20050;-76
2022/08/05 10:25:18;;;;;;;2.53;1.60;;;29.80;99.90;;;;;;4986154;28;20090;-76
2022/08/05 10:27:46;;;;;;;2.00;1.55;;;29.80;99.90;;;;;;4982933;28;20073;-76
2022/08/05 10:30:35;;;;;;;1.92;1.40;;;29.80;99.90;;;;;;4985474;28;20050;-77
2022/08/05 10:33:24;;;;;;;2.30;1.60;;;29.80;99.90;;;;;;4987467;28;20497;-76
2022/08/05 10:35:55;;;;;;;4.30;1.58;;;29.80;99.90;;;;;;4981186;28;20464;-76
2022/08/05 10:38:28;;;;;;;2.22;1.50;;;29.80;99.90;;;;;;4976533;28;20113;-76
2022/08/05 10:41:36;;;;;;;3.42;1.42;;;29.90;99.90;;;;;;4989152;28;20046;-77
2022/08/05 10:44:17;;;;;;;4.07;1.33;;;30.00;99.90;;;;;;4949769;29;20131;-76
2022/08/05 10:46:49;;;;;;;1.60;1.40;;;30.10;99.90;;;;;;4988245;28;20050;-76
2022/08/05 10:49:21;;;;;;;4.00;1.60;;;30.10;99.90;;;;;;4979323;28;20081;-76
2022/08/05 10:52:01;;;;;;;4.28;1.60;;;30.20;99.90;;;;;;4987754;28;20054;-76
2022/08/05 10:54:46;;;;;;;7.25;1.85;;;30.30;99.90;;;;;;4983979;28;20072;-76
2022/08/05 10:57:27;;;;;;;1.95;1.70;;;30.30;99.90;;;;;;5005406;28;20105;-76
2022/08/05 11:00:09;;;;;;;5.15;1.98;;;30.30;99.90;;;;;;4997922;28;20554;-77
2022/08/05 11:03:02;;;;;;;4.38;1.40;;;30.30;99.90;;;;;;4988766;28;20594;-76
2022/08/05 11:06:06;;;;;;;2.25;1.98;;;30.30;99.90;;;;;;4978790;28;20050;-76
2022/08/05 11:09:09;;;;;;;4.18;1.80;;;30.30;99.90;;;;;;4985571;28;20105;-76
2022/08/05 11:11:39;;;;;;;3.85;1.50;;;30.40;99.90;;;;;;4984474;28;20053;-76
2022/08/05 11:14:27;;;;;;;3.53;1.90;;;30.40;99.90;;;;;;4983555;28;20046;-76
2022/08/05 11:17:25;;;;;;;2.28;1.42;;;30.50;99.90;;;;;;4991330;28;20050;-77
2022/08/05 11:20:37;;;;;;;5.10;1.90;;;30.50;99.90;;;;;;4990115;28;20050;-76
2022/08/05 11:23:40;;;;;;;4.07;1.52;;;30.60;99.90;;;;;;4989866;28;20043;-77
2022/08/05 11:26:27;;;;;;;2.08;1.40;;;30.60;99.90;;;;;;4988163;28;20528;-76
2022/08/05 11:29:01;;;;;;;6.30;1.65;;;30.60;99.90;;;;;;4983518;28;20109;-77
2022/08/05 11:31:41;;;;;;;3.50;1.27;;;30.70;99.90;;;;;;4989975;28;20046;-77
2022/08/05 11:34:39;;;;;;;2.42;1.25;;;30.60;99.90;;;;;;4984953;28;20080;-77
2022/08/05 11:37:42;;;;;;;3.03;1.40;;;30.60;99.90;;;;;;4989424;28;20050;-77
2022/08/05 11:41:02;;;;;;;2.05;1.40;;;30.70;99.90;;;;;;4990962;28;20077;-77
2022/08/05 11:43:59;;;;;;;4.90;1.75;;;30.70;99.90;;;;;;4991467;28;20070;-77
2022/08/05 11:46:41;;;;;;;1.65;1.55;;;30.60;99.90;;;;;;4988109;28;20054;-76
2022/08/05 11:49:28;;;;;;;2.50;1.60;;;30.60;99.90;;;;;;4985770;28;20397;-77
2022/08/05 11:52:00;;;;;;;6.05;1.63;;;30.60;99.90;;;;;;4993062;28;20061;-76
2022/08/05 11:54:38;;;;;;;2.05;1.65;;;30.60;99.90;;;;;;4989284;28;20119;-76
2022/08/05 11:57:07;;;;;;;2.72;1.35;;;30.70;99.90;;;;;;4971951;28;20517;-76
2022/08/05 11:59:52;;;;;;;1.65;1.55;;;30.70;99.90;;;;;;4993333;28;20049;-77
2022/08/05 12:02:30;;;;;;;3.80;1.55;;;30.70;99.90;;;;;;4989073;28;20094;-77
2022/08/05 12:05:03;;;;;;;1.67;1.57;;;30.70;99.90;;;;;;4991843;28;20424;-77
2022/08/05 12:07:43;;;;;;;7.38;1.98;;;30.70;99.90;;;;;;4993320;28;20194;-77
2022/08/05 12:10:33;;;;;;;2.75;1.70;;;30.70;99.90;;;;;;4993643;28;20064;-76
2022/08/05 12:13:10;;;;;;;2.95;1.48;;;30.70;99.90;;;;;;4991087;28;20124;-76
2022/08/05 12:15:44;;;;;;;2.33;1.50;;;30.90;99.90;;;;;;4989255;28;20050;-76
2022/08/05 12:18:27;;;;;;;4.15;1.52;;;30.90;99.90;;;;;;4992791;28;20166;-77
2022/08/05 12:21:12;;;;;;;3.38;1.45;;;31.00;99.90;;;;;;4998608;28;20046;-76
2022/08/05 12:23:51;;;;;;;1.88;1.33;;;31.00;99.90;;;;;;4992000;28;20050;-76
2022/08/05 12:26:18;;;;;;;5.47;1.70;;;31.00;99.90;;;;;;4992671;28;20137;-76
2022/08/05 12:28:45;;;;;;;4.20;1.63;;;31.00;99.90;;;;;;4992930;28;20487;-77
2022/08/05 12:31:12;;;;;;;3.80;1.92;;;31.00;99.90;;;;;;4984813;28;20141;-77
2022/08/05 12:34:00;;;;;;;4.40;1.50;;;31.00;99.90;;;;;;4993901;28;20054;-77
2022/08/05 12:36:29;;;;;;;1.88;1.67;;;31.00;99.90;;;;;;4994378;28;20085;-77
2022/08/05 12:38:57;;;;;;;6.43;1.60;;;31.00;99.90;;;;;;5002256;28;20050;-76
2022/08/05 12:41:30;;;;;;;2.58;1.67;;;31.10;99.90;;;;;;5008800;28;20069;-76
2022/08/05 12:44:04;;;;;;;2.00;1.80;;;31.00;99.90;;;;;;4989765;28;20424;-77
2022/08/05 12:46:38;;;;;;;4.97;1.98;;;31.10;99.90;;;;;;4992840;28;20104;-76
2022/08/05 12:49:13;;;;;;;2.28;1.88;;;31.10;99.90;;;;;;4993392;28;20054;-77
2022/08/05 12:51:43;;;;;;;2.72;1.60;;;31.10;99.90;;;;;;4992808;28;20047;-76
2022/08/05 12:54:31;;;;;;;1.88;1.40;;;31.30;99.90;;;;;;4992046;28;20050;-77
2022/08/05 12:57:05;;;;;;;2.17;1.60;;;31.30;99.90;;;;;;4993622;28;20058;-77
2022/08/05 12:59:53;;;;;;;4.75;1.83;;;31.30;99.90;;;;;;4991657;28;20066;-76
2022/08/05 13:02:40;;;;;;;4.78;2.03;;;31.40;99.90;;;;;;4989215;28;20049;-76
2022/08/05 13:05:07;;;;;;;2.85;1.60;;;31.40;99.90;;;;;;4993473;28;20065;-76
2022/08/05 13:07:41;;;;;;;4.47;1.83;;;31.50;99.90;;;;;;4993809;28;20074;-76
2022/08/05 13:10:26;;;;;;;5.85;1.90;;;31.40;99.90;;;;;;5000611;28;20050;-76
2022/08/05 13:12:55;;;;;;;4.10;1.95;;;31.50;99.90;;;;;;4999712;28;20106;-75
2022/08/05 13:15:30;;;;;;;2.70;1.60;;;31.50;99.90;;;;;;5000089;28;20109;-75
2022/08/05 13:18:17;;;;;;;1.48;1.38;;;31.50;99.90;;;;;;4993745;28;20051;-76
2022/08/05 13:20:46;;;;;;;;;;;31.60;99.90;;;;;;4999544;28;20046;-75
2022/08/05 13:23:15;;;;;;;4.23;1.40;;;31.60;99.90;;;;;;5002718;28;19922;-76
2022/08/05 13:25:49;;;;;;;3.90;2.00;;;31.60;99.90;;;;;;5003863;28;20125;-76
2022/08/05 13:28:24;;;;;;;2.42;1.80;;;31.60;99.90;;;;;;5010837;28;20058;-76
2022/08/05 13:30:51;;;;;;;2.53;1.80;;;31.60;99.90;;;;;;4998701;28;20082;-76
2022/08/05 13:33:20;;;;;;;2.53;1.70;;;31.70;99.90;;;;;;5000035;28;20084;-76
2022/08/05 13:36:07;;;;;;;4.15;1.77;;;31.70;99.90;;;;;;5000205;28;20055;-76
2022/08/05 13:38:35;;;;;;;5.55;2.05;;;31.80;99.90;;;;;;5007943;28;20046;-76
2022/08/05 13:41:08;;;;;;;5.63;1.77;;;31.80;99.90;;;;;;5005041;28;20050;-76
2022/08/05 13:43:35;;;;;;;5.35;1.73;;;32.00;99.90;;;;;;5001030;28;20047;-77